Aérodrome :
LOGIN :

S'inscrire | Disclaimer

   EN    FR    IT 

 










Légende :    VFR   VFR Marginal   IFR   IFR Intensif   IFR Très Intensif
Visi : 
Plafond : 
>= 8 km
>= 3000ft
5 à 8 km
1000 à 3000 ft
1500m à 5 km
500 à 1000 ft
800 à 1500m
200 à 500 ft
< 800m
< 200 ft
Symboles :   Orages  Brouillard  Fortes neiges  Fortes précipitations  Vent > 20 kt
SIGMETs :   Divers  Orages  Givrage  Turbulence  Onde Orograph.  Cendres Volcan.






- Altitude de l'aérodrome : 584 ft


LFPV - Villacoublay Vélizy

DERNIER METAR :
  • 172230Z AUTO 24010KT CAVOK 05/03 Q1024 NOSIG

METARs EXPIRÉS :
  • 172200Z AUTO 24011KT CAVOK 05/03 Q1024 NOSIG
  • 172130Z AUTO 24009KT 210V270 CAVOK 06/03 Q1023 NOSIG
  • 172100Z AUTO 24011KT CAVOK 06/03 Q1023 NOSIG
  • 172030Z AUTO 25009KT CAVOK 06/03 Q1023 NOSIG
  • 172000Z AUTO 25010KT CAVOK 06/03 Q1023 TEMPO 24015G25KT 3500 -SHRA SCT030TCU
  • 171930Z AUTO 25008KT 9999 FEW049 SCT090 BKN110 06/03 Q1022 TEMPO 24015G25KT 3500 -SHRA SCT030TCU

TAF TAF LFPV
Valide du 17 à 21h jusqu'au 18 à 21h UTC


172000Z 1721/1821 25010KT CAVOK
TEMPO 1721/1802 25010G20KT
TEMPO 1812/1821 23010G20KT



MET'MAP, la Météo Aéronautique d'un coup d'oeil ! - Copyright ORBIFLY Décembre 2007 - Disclaimer

ORBIFLY MET'MAP TEAM :

Programmation & Développement : Alexandra Zaïnal
Sur une idée originale de : Baudouin d'Aumeries
Assistance à la programmation : Marc-Olivier Méhu
Soutien technique & logistique : Manuel Goepfert

Contact : metmap@orbifly.com




SOURCES & CREDITS :

   NOAA